Time;durP1;ratioP1;P1;durP2;ratioP2;P2;SDS_P1;SDS_P2;PMS_P1;PMS_P2;Temp;Humidity;BMP_temperature;BMP_pressure;BME280_temperature;BME280_humidity;BME280_pressure;Samples;Min_cycle;Max_cycle;Signal;HPM_P1;HPM_P2
2021/06/30 00:01:10;;;;;;;21.00;19.00;;;;;;;26.76;57.24;166042.31;828441;71;30349;-79
2021/06/30 00:16:08;;;;;;;18.33;16.77;;;;;;;;;;834562;71;30381;-78
2021/06/30 00:31:15;;;;;;;18.00;16.40;;;;;;;;;;827613;71;33183;-77
2021/06/30 00:46:14;;;;;;;19.73;17.63;;;;;;;;;;823307;71;32791;-79
2021/06/30 01:01:08;;;;;;;21.00;18.80;;;;;;;;;;828416;71;30067;-78
2021/06/30 01:16:07;;;;;;;18.97;17.10;;;;;;;;;;834271;71;29718;-77
2021/06/30 01:31:14;;;;;;;17.93;16.33;;;;;;;;;;828186;71;32605;-79
2021/06/30 01:46:15;;;;;;;18.47;16.67;;;;;;;26.22;57.98;94358.76;829308;71;32757;-79
2021/06/30 02:01:09;;;;;;;16.43;15.03;;;;;;;26.19;57.95;165574.61;828508;71;30290;-80
2021/06/30 02:16:08;;;;;;;18.33;16.63;;;;;;;26.25;58.21;94379.52;828786;71;29856;-80
2021/06/30 02:31:08;;;;;;;17.20;15.70;;;;;;;;;;828208;71;30311;-77
2021/06/30 02:46:08;;;;;;;17.27;15.77;;;;;;;26.25;60.51;123554.15;828338;71;29736;-78
2021/06/30 03:16:15;;;;;;;17.97;16.30;;;;;;;26.05;58.64;94414.92;827503;71;32778;-77
2021/06/30 03:31:15;;;;;;;20.53;16.97;;;;;;;26.24;59.26;94411.59;833969;71;32699;-77
2021/06/30 03:46:13;;;;;;;18.53;16.50;;;;;;;;;;827558;71;32702;-77
2021/06/30 04:01:08;;;;;;;17.70;15.93;;;;;;;26.31;58.55;94410.98;828213;71;29823;-78
2021/06/30 04:16:14;;;;;;;20.83;18.90;;;;;;;26.58;58.12;94397.84;827547;71;33175;-76
2021/06/30 04:31:15;;;;;;;21.63;18.50;;;;;;;26.51;59.12;94426.68;833973;71;33532;-77
2021/06/30 04:46:09;;;;;;;24.10;21.77;;;;;;;26.37;59.66;94420.77;829813;71;30337;-78
2021/06/30 05:01:08;;;;;;;24.23;21.93;;;;;;;16.20;59.18;92883.30;828258;71;29748;-78
2021/06/30 05:16:15;;;;;;;24.00;21.60;;;;;;;26.73;59.38;94409.88;827703;71;32715;-82
2021/06/30 05:31:11;;;;;;;23.53;21.23;;;;;;;27.41;57.31;94420.77;826072;71;31575;-79
2021/06/30 05:46:09;;;;;;;25.23;22.30;;;;;;;27.76;56.85;94425.86;828361;71;30371;-81
2021/06/30 06:01:11;;;;;;;23.87;21.47;;;;;;;28.00;56.68;94419.86;794331;74;31228;-82
2021/06/30 06:16:22;;;;;;;23.60;21.40;;;;;;;28.64;55.12;94422.42;834066;71;33223;-83
2021/06/30 06:31:13;;;;;;;24.47;22.20;;;;;;;29.29;53.30;94421.70;834269;71;29732;-83
2021/06/30 06:46:17;;;;;;;24.23;22.00;;;;;;;29.91;51.50;94411.42;834176;71;32878;-85
2021/06/30 07:01:15;;;;;;;23.77;21.77;;;;;;;30.18;50.96;94394.88;828453;71;32796;-81
2021/06/30 07:16:10;;;;;;;23.00;20.90;;;;;;;30.43;50.11;94387.62;828283;71;30346;-80
2021/06/30 07:31:12;;;;;;;21.90;19.77;;;;;;;31.15;47.98;94374.05;828184;71;31229;-83
2021/06/30 07:46:16;;;;;;;19.07;17.50;;;;;;;31.78;46.62;94370.02;834312;71;32798;-83
2021/06/30 08:01:20;;;;;;;20.17;18.37;;;;;;;32.25;44.81;94349.17;827637;71;32786;-80
2021/06/30 08:16:17;;;;;;;21.63;19.70;;;;;;;32.30;44.77;94351.33;827449;71;32714;-82
2021/06/30 08:31:19;;;;;;;21.47;19.53;;;;;;;32.29;44.73;94341.08;834697;71;32841;-79
2021/06/30 08:46:09;;;;;;;22.20;20.10;;;;;;;32.45;44.56;94342.95;830171;70;29738;-83
2021/06/30 09:16:10;;;;;;;23.53;21.33;;;;;;;32.46;44.79;94330.90;828335;71;30299;-81
2021/06/30 09:46:23;;;;;;;21.90;19.80;;;;;;;33.41;43.43;94296.88;827810;71;33253;-81
2021/06/30 10:01:20;;;;;;;22.43;20.53;;;;;;;33.67;42.65;94270.34;834594;71;32743;-81
2021/06/30 10:16:21;;;;;;;20.63;18.93;;;;;;;33.77;42.17;94255.59;828140;71;33190;-82
2021/06/30 10:31:20;;;;;;;21.77;19.43;;;;;;;33.82;41.94;94240.64;835702;71;33280;-83
2021/06/30 10:46:28;;;;;;;20.37;18.57;;;;;;;33.76;41.98;94235.61;836192;71;32685;-80
2021/06/30 11:01:13;;;;;;;20.40;18.57;;;;;;;33.91;41.89;94214.22;834177;71;29841;-82
2021/06/30 11:16:38;;;;;;;19.43;17.80;;;;;;;33.76;42.32;94203.72;828183;71;33365;-80
2021/06/30 11:31:31;;;;;;;25.43;17.10;;;;;;;34.24;41.03;94178.37;828476;71;32735;-83
2021/06/30 11:46:09;;;;;;;18.60;17.00;;;;;;;34.41;40.71;94154.36;828225;71;29682;-84
2021/06/30 12:01:20;;;;;;;19.03;17.10;;;;;;;34.47;40.83;94142.23;827395;71;33270;-83
2021/06/30 12:16:36;;;;;;;17.87;16.23;;;;;;;34.48;39.29;94117.27;833997;71;32303;-84
2021/06/30 12:31:17;;;;;;;16.97;15.23;;;;;;;34.49;37.99;94104.39;834196;71;31291;-85
2021/06/30 12:46:34;;;;;;;16.33;14.67;;;;;;;34.81;38.70;94093.52;834604;71;31326;-83
2021/06/30 13:01:19;;;;;;;16.60;15.00;;;;;;;34.90;39.00;94081.88;828534;71;27409;-83
2021/06/30 13:16:15;;;;;;;18.17;13.73;;;;;;;34.76;37.96;94059.31;793289;74;30943;-84
2021/06/30 13:46:16;;;;;;;13.93;12.37;;;;;;;35.02;37.68;94047.47;827734;71;30892;-82
2021/06/30 14:01:28;;;;;;;16.83;12.70;;;;;;;34.87;36.75;94052.77;824337;71;30793;-82
2021/06/30 14:16:16;;;;;;;17.97;12.30;;;;;;;34.47;37.57;94052.30;828123;71;31303;-83
2021/06/30 14:31:32;;;;;;;11.57;10.10;;;;;;;34.19;35.48;94050.19;835480;71;30929;-84
2021/06/30 14:46:12;;;;;;;11.17;7.83;;;;;;;33.97;34.14;94041.48;828394;71;27989;-82
2021/06/30 15:16:09;;;;;;;12.77;8.70;;;;;;;34.39;33.21;93999.32;828414;71;28223;-81
2021/06/30 15:31:18;;;;;;;12.07;7.67;;;;;;;34.25;34.24;93974.83;835369;71;30826;-83
2021/06/30 15:46:09;;;;;;;9.33;7.50;;;;;;;33.99;34.43;93966.16;829048;71;27540;-84
2021/06/30 16:01:17;;;;;;;8.73;6.97;;;;;;;33.89;33.24;93959.33;828416;71;31148;-86
2021/06/30 16:16:20;;;;;;;16.07;7.77;;;;;;;33.66;32.96;93952.50;835102;71;30770;-86
2021/06/30 16:31:15;;;;;;;11.07;6.70;;;;;;;33.38;33.38;93976.74;828921;71;32659;-85
2021/06/30 16:46:09;;;;;;;9.53;8.00;;;;;;;33.01;34.66;93986.06;833946;71;30220;-77
2021/06/30 17:01:12;;;;;;;11.67;7.63;;;;;;;32.53;35.58;93994.37;834045;71;31642;-77
2021/06/30 17:16:10;;;;;;;11.47;7.03;;;;;;;32.09;35.74;94003.83;828282;71;29843;-76
2021/06/30 17:31:17;;;;;;;18.90;15.40;;;;;;;31.71;43.34;94016.84;833965;71;32815;-78
2021/06/30 17:46:14;;;;;;;19.30;17.33;;;;;;;30.27;50.32;94017.41;834039;71;33077;-77
2021/06/30 18:01:09;;;;;;;22.00;17.90;;;;;;;29.59;51.57;94017.70;828341;71;30246;-80
2021/06/30 18:16:09;;;;;;;20.27;18.20;;;;;;;29.14;51.76;94009.63;824836;71;29710;-77
2021/06/30 18:31:08;;;;;;;19.87;17.70;;;;;;;29.00;51.78;94029.57;829784;71;29695;-80
2021/06/30 18:46:14;;;;;;;18.60;16.60;;;;;;;28.77;52.17;94030.41;834139;71;32762;-77
2021/06/30 19:01:14;;;;;;;20.63;17.90;;;;;;;28.47;53.13;94040.81;828255;71;33104;-76
2021/06/30 19:16:15;;;;;;;19.30;17.40;;;;;;;28.32;53.82;94068.04;826058;71;32685;-76
2021/06/30 19:31:15;;;;;;;20.70;18.60;;;;;;;28.45;53.89;94089.06;827911;71;33161;-76
2021/06/30 19:46:15;;;;;;;20.87;18.60;;;;;;;28.46;54.89;94094.02;828749;71;32804;-78
2021/06/30 20:01:15;;;;;;;22.33;20.13;;;;;;;28.34;56.10;94102.13;820894;71;31075;-76
2021/06/30 20:16:09;;;;;;;22.30;19.00;;;;;;;28.16;56.06;94091.66;821225;71;30322;-78
2021/06/30 20:31:19;;;;;;;19.83;17.83;;;;;;;28.00;55.48;94086.11;821219;71;32839;-78
2021/06/30 20:46:08;;;;;;;20.73;18.63;;;;;;;28.09;55.57;94097.75;820042;71;29766;-75
2021/06/30 21:16:09;;;;;;;25.70;23.03;;;;;;;28.03;58.53;94092.05;817507;71;29852;-77
2021/06/30 21:31:09;;;;;;;26.13;23.43;;;;;;;27.94;59.52;94089.09;820427;71;30348;-80
2021/06/30 21:46:09;;;;;;;26.00;23.50;;;;;;;27.72;61.02;94073.83;819623;71;30376;-76
2021/06/30 22:16:09;;;;;;;26.10;23.53;;;;;;;27.69;61.82;94055.75;828349;71;29704;-80
2021/06/30 22:31:15;;;;;;;27.20;24.50;;;;;;;27.72;62.01;94061.09;827289;71;32180;-76
2021/06/30 22:46:08;;;;;;;25.27;22.87;;;;;;;27.60;62.49;94038.75;829083;71;28675;-77
2021/06/30 23:01:14;;;;;;;26.23;23.37;;;;;;;27.53;62.94;94026.13;834264;71;31727;-76
2021/06/30 23:16:12;;;;;;;25.53;23.00;;;;;;;27.43;63.42;94027.64;834063;71;30954;-77
2021/06/30 23:31:15;;;;;;;23.73;21.53;;;;;;;27.39;63.89;94023.64;829103;71;31826;-79
2021/06/30 23:46:15;;;;;;;23.30;21.30;;;;;;;27.26;64.51;94016.72;827580;71;31732;-78
